Time;durP1;ratioP1;P1;durP2;ratioP2;P2;SDS_P1;SDS_P2;PMS_P1;PMS_P2;Temp;Humidity;BMP_temperature;BMP_pressure;BME280_temperature;BME280_humidity;BME280_pressure;Samples;Min_cycle;Max_cycle;Signal;HPM_P1;HPM_P2
2023/08/27 00:02:07;;;;;;;3.70;3.40;;;13.70;99.90;;;;;;4970681;28;20051;-74
2023/08/27 00:04:34;;;;;;;3.10;2.80;;;13.60;99.90;;;;;;4963901;28;20125;-74
2023/08/27 00:07:00;;;;;;;3.38;2.92;;;13.70;99.90;;;;;;4953529;28;20039;-74
2023/08/27 00:09:26;;;;;;;3.13;2.92;;;13.60;99.90;;;;;;4939888;28;20046;-74
2023/08/27 00:11:51;;;;;;;2.63;2.42;;;13.70;99.90;;;;;;4970571;28;20129;-73
2023/08/27 00:14:17;;;;;;;2.55;2.35;;;13.60;99.90;;;;;;4936229;28;20592;-74
2023/08/27 00:16:42;;;;;;;2.50;2.30;;;13.60;99.90;;;;;;4970426;28;20154;-74
2023/08/27 00:19:09;;;;;;;3.15;2.38;;;13.70;99.90;;;;;;4944768;28;20042;-74
2023/08/27 00:21:34;;;;;;;2.53;2.33;;;13.60;99.90;;;;;;4985486;28;20047;-74
2023/08/27 00:24:00;;;;;;;2.42;2.22;;;13.60;99.90;;;;;;4971120;28;20046;-74
2023/08/27 00:26:26;;;;;;;2.45;2.10;;;13.60;99.90;;;;;;4968763;28;20511;-74
2023/08/27 00:28:51;;;;;;;2.28;2.08;;;13.60;99.90;;;;;;4970296;28;20406;-74
2023/08/27 00:31:17;;;;;;;1.90;1.80;;;13.50;99.90;;;;;;4953980;28;20051;-74
2023/08/27 00:33:43;;;;;;;2.13;1.92;;;13.60;99.90;;;;;;4966968;28;20039;-74
2023/08/27 00:36:09;;;;;;;2.35;2.15;;;13.50;99.90;;;;;;4971022;28;20503;-74
2023/08/27 00:38:34;;;;;;;2.42;2.22;;;13.60;99.90;;;;;;4950882;28;20181;-74
2023/08/27 00:41:00;;;;;;;2.22;2.03;;;13.60;99.90;;;;;;4969882;28;20054;-73
2023/08/27 00:43:26;;;;;;;2.20;2.00;;;13.50;99.90;;;;;;4954101;28;20149;-74
2023/08/27 00:45:51;;;;;;;2.38;2.17;;;13.50;99.90;;;;;;4954111;28;20478;-73
2023/08/27 00:48:17;;;;;;;2.28;2.08;;;13.50;99.90;;;;;;4969245;28;20062;-73
2023/08/27 00:50:43;;;;;;;2.25;2.05;;;13.50;99.90;;;;;;4952622;28;20054;-74
2023/08/27 00:53:10;;;;;;;;;;;13.50;99.90;;;;;;4970820;28;20050;-74
2023/08/27 00:55:36;;;;;;;2.57;2.23;;;13.50;99.90;;;;;;4969721;28;20298;-74
2023/08/27 00:58:02;;;;;;;2.30;2.10;;;13.50;99.90;;;;;;4994507;28;20389;-73
2023/08/27 01:00:28;;;;;;;2.20;2.00;;;13.50;99.90;;;;;;4967724;28;20126;-74
2023/08/27 01:02:54;;;;;;;2.30;2.10;;;13.50;99.90;;;;;;4957523;28;20039;-74
2023/08/27 01:05:20;;;;;;;2.63;2.10;;;13.50;99.90;;;;;;4969960;28;20051;-73
2023/08/27 01:07:57;;;;;;;3.47;2.67;;;13.50;99.90;;;;;;4969748;28;20039;-74
2023/08/27 01:10:36;;;;;;;2.38;2.17;;;13.50;99.90;;;;;;4967433;28;20042;-74
2023/08/27 01:13:11;;;;;;;2.30;2.10;;;13.50;99.90;;;;;;4998015;28;20043;-74
2023/08/27 01:15:36;;;;;;;2.22;2.03;;;13.60;99.90;;;;;;4995433;28;20050;-74
2023/08/27 01:18:03;;;;;;;2.35;2.10;;;13.50;99.90;;;;;;4974298;28;20770;-74
2023/08/27 01:20:31;;;;;;;2.20;2.00;;;13.50;99.90;;;;;;4972624;28;20506;-74
2023/08/27 01:22:56;;;;;;;2.20;2.00;;;13.60;99.90;;;;;;4972374;28;20284;-74
2023/08/27 01:25:32;;;;;;;2.50;2.30;;;13.60;99.90;;;;;;5005191;28;20085;-73
2023/08/27 01:28:07;;;;;;;2.67;2.30;;;13.60;99.90;;;;;;4973205;28;20046;-74
2023/08/27 01:30:43;;;;;;;2.20;2.00;;;13.60;99.90;;;;;;4972973;28;20126;-74
2023/08/27 01:33:24;;;;;;;2.25;2.05;;;13.60;99.90;;;;;;5005050;28;20043;-74
2023/08/27 01:35:50;;;;;;;2.25;2.05;;;13.60;99.90;;;;;;5004191;28;20723;-73
2023/08/27 01:38:17;;;;;;;;;;;13.60;99.90;;;;;;4952327;28;20049;-74
2023/08/27 01:40:43;;;;;;;2.35;2.15;;;13.60;99.90;;;;;;4972045;28;19971;-73
2023/08/27 01:43:09;;;;;;;2.22;1.83;;;13.60;99.90;;;;;;4972780;28;20074;-74
2023/08/27 01:45:35;;;;;;;2.20;2.00;;;13.60;99.90;;;;;;4973645;28;20094;-74
2023/08/27 01:48:01;;;;;;;2.40;2.13;;;13.60;99.90;;;;;;4968811;28;20035;-74
2023/08/27 01:50:26;;;;;;;2.20;1.95;;;13.60;99.90;;;;;;4955409;28;20059;-74
2023/08/27 01:52:52;;;;;;;2.00;1.80;;;13.60;99.90;;;;;;4988938;28;20779;-74
2023/08/27 01:55:18;;;;;;;2.25;2.00;;;13.60;99.90;;;;;;4972999;28;20089;-73
2023/08/27 01:57:45;;;;;;;1.80;1.70;;;13.60;99.90;;;;;;4955180;28;20402;-74
2023/08/27 02:00:11;;;;;;;2.00;1.80;;;13.50;99.90;;;;;;4972282;28;20055;-73
2023/08/27 02:02:37;;;;;;;2.22;2.03;;;13.50;99.90;;;;;;4970658;28;20123;-73
2023/08/27 02:05:06;;;;;;;2.10;1.90;;;13.50;99.90;;;;;;4971349;28;20118;-74
2023/08/27 02:07:34;;;;;;;1.73;1.63;;;13.40;99.90;;;;;;4973993;28;20051;-74
2023/08/27 02:10:00;;;;;;;2.10;1.90;;;13.40;99.90;;;;;;4995237;28;20039;-74
2023/08/27 02:12:26;;;;;;;1.98;1.77;;;13.40;99.90;;;;;;4953329;28;20412;-74
2023/08/27 02:14:52;;;;;;;;;;;13.40;99.90;;;;;;4955336;28;20139;-73
2023/08/27 02:17:17;;;;;;;2.13;1.92;;;13.30;99.90;;;;;;4953901;28;20029;-74
2023/08/27 02:19:43;;;;;;;2.13;1.90;;;13.40;99.90;;;;;;4960118;28;20094;-74
2023/08/27 02:22:09;;;;;;;1.85;1.67;;;13.40;99.90;;;;;;4946884;28;20058;-73
2023/08/27 02:24:34;;;;;;;2.08;1.88;;;13.30;99.90;;;;;;4964555;28;20046;-73
2023/08/27 02:27:00;;;;;;;1.88;1.70;;;13.30;99.90;;;;;;4955642;28;20048;-73
2023/08/27 02:29:26;;;;;;;1.90;1.70;;;13.30;99.90;;;;;;4960074;28;20097;-73
2023/08/27 02:31:51;;;;;;;1.90;1.70;;;13.30;99.90;;;;;;4953626;28;20039;-74
2023/08/27 02:34:17;;;;;;;1.80;1.70;;;13.30;99.90;;;;;;4969791;28;20165;-73
2023/08/27 02:36:43;;;;;;;2.10;1.90;;;13.30;99.90;;;;;;4955772;28;20054;-73
2023/08/27 02:39:08;;;;;;;1.85;1.75;;;13.30;99.90;;;;;;4971350;28;20055;-74
2023/08/27 02:41:34;;;;;;;2.13;1.92;;;13.20;99.90;;;;;;4956118;28;20035;-74
2023/08/27 02:43:59;;;;;;;2.15;1.88;;;13.30;99.90;;;;;;4969143;28;20094;-74
2023/08/27 02:46:25;;;;;;;1.65;1.55;;;13.20;99.90;;;;;;4967850;28;20039;-73
2023/08/27 02:48:51;;;;;;;2.15;1.95;;;13.30;99.90;;;;;;4970814;28;20035;-73
2023/08/27 02:51:16;;;;;;;2.00;1.80;;;13.20;99.90;;;;;;4971116;28;20687;-74
2023/08/27 02:53:42;;;;;;;2.05;1.85;;;13.20;99.90;;;;;;4971835;28;20066;-74
2023/08/27 02:56:08;;;;;;;2.40;2.20;;;13.30;99.90;;;;;;4963814;28;20051;-74
2023/08/27 02:58:33;;;;;;;2.00;1.80;;;13.20;99.90;;;;;;4964704;28;20454;-73
2023/08/27 03:00:59;;;;;;;3.70;1.92;;;13.30;99.90;;;;;;4954270;28;20081;-74
2023/08/27 03:03:25;;;;;;;1.83;1.70;;;13.30;99.90;;;;;;4962413;28;20129;-74
2023/08/27 03:05:50;;;;;;;2.22;2.03;;;13.30;99.90;;;;;;4962116;28;20039;-73
2023/08/27 03:08:16;;;;;;;2.00;1.80;;;13.20;99.90;;;;;;4955126;28;20069;-74
2023/08/27 03:10:42;;;;;;;2.38;2.10;;;13.30;99.90;;;;;;4971677;28;20133;-73
2023/08/27 03:13:08;;;;;;;2.63;2.20;;;13.20;99.90;;;;;;4972217;28;20047;-73
2023/08/27 03:15:34;;;;;;;2.30;2.10;;;13.20;99.90;;;;;;4964502;28;20095;-73
2023/08/27 03:17:59;;;;;;;2.92;2.63;;;13.30;99.90;;;;;;4939269;28;20081;-73
2023/08/27 03:20:25;;;;;;;2.40;2.20;;;13.30;99.90;;;;;;4970481;28;20042;-74
2023/08/27 03:22:50;;;;;;;2.47;2.28;;;13.30;99.90;;;;;;4955081;28;20043;-74
2023/08/27 03:25:16;;;;;;;2.53;2.33;;;13.20;99.90;;;;;;4969229;28;20473;-73
2023/08/27 03:27:42;;;;;;;2.30;2.10;;;13.30;99.90;;;;;;4981681;28;20446;-74
2023/08/27 03:30:08;;;;;;;2.38;2.17;;;13.20;99.90;;;;;;4955872;28;20469;-73
2023/08/27 03:32:35;;;;;;;2.20;2.00;;;13.20;99.90;;;;;;4954780;28;20047;-73
2023/08/27 03:35:01;;;;;;;2.20;2.00;;;13.20;99.90;;;;;;4970008;28;20443;-74
2023/08/27 03:37:26;;;;;;;3.05;2.20;;;13.40;99.90;;;;;;4987253;28;20057;-74
2023/08/27 03:39:52;;;;;;;2.22;2.03;;;13.40;99.90;;;;;;4970462;28;20055;-74
2023/08/27 03:42:18;;;;;;;2.67;2.25;;;13.40;99.90;;;;;;4960623;28;20043;-74
2023/08/27 03:44:43;;;;;;;2.65;2.45;;;13.40;99.90;;;;;;4970800;28;20038;-74
2023/08/27 03:47:09;;;;;;;3.10;2.25;;;13.40;99.90;;;;;;4970382;28;20070;-74
2023/08/27 03:49:35;;;;;;;2.20;2.00;;;13.50;99.90;;;;;;4954456;28;20121;-74
2023/08/27 03:52:00;;;;;;;2.38;2.17;;;13.50;99.90;;;;;;4970960;28;20483;-73
2023/08/27 03:54:27;;;;;;;2.40;2.20;;;13.50;99.90;;;;;;4954439;28;20051;-74
2023/08/27 03:56:53;;;;;;;2.33;2.13;;;13.50;99.90;;;;;;5002528;28;20052;-73
2023/08/27 03:59:19;;;;;;;;;;;13.50;99.90;;;;;;4970790;28;20049;-74
2023/08/27 04:01:45;;;;;;;2.85;2.58;;;13.50;99.90;;;;;;4984572;28;20316;-74
2023/08/27 04:04:10;;;;;;;2.72;2.38;;;13.50;99.90;;;;;;4950881;28;20472;-74
2023/08/27 04:06:36;;;;;;;2.58;2.38;;;13.50;99.90;;;;;;4991964;28;20122;-74
2023/08/27 04:09:04;;;;;;;2.45;2.25;;;13.50;99.90;;;;;;4945061;28;20039;-74
2023/08/27 04:11:29;;;;;;;2.75;2.55;;;13.50;99.90;;;;;;4990481;28;20051;-73
2023/08/27 04:13:55;;;;;;;2.72;2.40;;;13.60;99.90;;;;;;4967698;28;20038;-74
2023/08/27 04:16:21;;;;;;;2.30;2.10;;;13.50;99.90;;;;;;4959127;28;20114;-74
2023/08/27 04:18:46;;;;;;;2.58;2.38;;;13.50;99.90;;;;;;4960951;28;20042;-74
2023/08/27 04:21:13;;;;;;;1.92;1.77;;;13.50;99.90;;;;;;4960178;28;20774;-74
2023/08/27 04:23:39;;;;;;;2.30;2.10;;;13.60;99.90;;;;;;4965228;28;20043;-74
2023/08/27 04:26:05;;;;;;;2.40;2.20;;;13.60;99.90;;;;;;4963479;28;20053;-74
2023/08/27 04:28:33;;;;;;;1.88;1.77;;;13.50;99.90;;;;;;4992702;28;20050;-74
2023/08/27 04:30:59;;;;;;;2.10;1.90;;;13.50;99.90;;;;;;4964169;28;20509;-74
2023/08/27 04:33:25;;;;;;;2.50;2.22;;;13.60;99.90;;;;;;4958670;28;20047;-74
2023/08/27 04:35:52;;;;;;;2.42;2.22;;;13.40;99.90;;;;;;4950189;29;20036;-74
2023/08/27 04:38:19;;;;;;;2.20;2.00;;;13.40;99.90;;;;;;4965457;28;20043;-74
2023/08/27 04:40:52;;;;;;;1.88;1.73;;;13.40;99.90;;;;;;4964395;28;20039;-74
2023/08/27 04:43:18;;;;;;;1.90;1.70;;;13.40;99.90;;;;;;4957096;28;20049;-74
2023/08/27 04:45:44;;;;;;;2.33;2.13;;;13.40;99.90;;;;;;4954120;28;20039;-74
2023/08/27 04:48:09;;;;;;;2.40;2.00;;;13.40;99.90;;;;;;4970349;28;20045;-74
2023/08/27 04:50:36;;;;;;;2.60;2.40;;;13.40;99.90;;;;;;4969241;28;20051;-74
2023/08/27 04:53:02;;;;;;;2.30;2.10;;;13.40;99.90;;;;;;4989045;28;20388;-74
2023/08/27 04:55:28;;;;;;;2.20;2.00;;;13.40;99.90;;;;;;5004125;28;20050;-74
2023/08/27 04:57:54;;;;;;;1.80;1.70;;;13.40;99.90;;;;;;4973438;28;20051;-74
2023/08/27 05:00:20;;;;;;;1.90;1.80;;;13.30;99.90;;;;;;4973819;28;20122;-74
2023/08/27 05:02:49;;;;;;;1.80;1.60;;;13.30;99.90;;;;;;4971647;28;20041;-74
2023/08/27 05:05:16;;;;;;;2.50;2.17;;;13.30;99.90;;;;;;4969528;28;20039;-74
2023/08/27 05:07:42;;;;;;;2.22;2.03;;;13.30;99.90;;;;;;4966733;28;20042;-74
2023/08/27 05:10:08;;;;;;;;;;;13.30;99.90;;;;;;4951580;28;20142;-74
2023/08/27 05:12:33;;;;;;;2.28;2.05;;;13.20;99.90;;;;;;5003673;28;20004;-74
2023/08/27 05:14:59;;;;;;;2.30;2.10;;;13.30;99.90;;;;;;4953931;28;20065;-74
2023/08/27 05:17:25;;;;;;;2.40;2.20;;;13.30;99.90;;;;;;4972209;28;20475;-74
2023/08/27 05:19:51;;;;;;;2.40;2.20;;;13.20;99.90;;;;;;4972104;28;20395;-74
2023/08/27 05:22:17;;;;;;;2.00;1.80;;;13.30;99.90;;;;;;4989483;28;20137;-74
2023/08/27 05:24:42;;;;;;;2.10;1.90;;;13.30;99.90;;;;;;4957624;28;20122;-74
2023/08/27 05:27:08;;;;;;;2.55;2.00;;;13.30;99.90;;;;;;4971870;28;20396;-74
2023/08/27 05:29:34;;;;;;;2.05;1.85;;;13.30;99.90;;;;;;4972644;28;20129;-74
2023/08/27 05:31:59;;;;;;;2.10;1.95;;;13.30;99.90;;;;;;4973528;28;20461;-74
2023/08/27 05:34:26;;;;;;;2.20;2.00;;;13.30;99.90;;;;;;4963940;28;20372;-74
2023/08/27 05:36:52;;;;;;;2.40;2.20;;;13.40;99.90;;;;;;5005422;28;20498;-74
2023/08/27 05:39:18;;;;;;;;;;;13.50;99.90;;;;;;4957342;28;20051;-74
2023/08/27 05:41:43;;;;;;;2.88;2.53;;;13.50;99.90;;;;;;4949980;29;19918;-74
2023/08/27 05:44:09;;;;;;;2.50;2.30;;;13.70;99.90;;;;;;4934686;28;20051;-74
2023/08/27 05:46:35;;;;;;;2.70;2.50;;;13.70;99.90;;;;;;4969320;28;20041;-74
2023/08/27 05:49:01;;;;;;;2.60;2.40;;;13.80;99.90;;;;;;4965025;28;20065;-74
2023/08/27 05:51:27;;;;;;;;;;;13.90;99.90;;;;;;4973788;28;20057;-73
2023/08/27 05:53:52;;;;;;;3.08;2.78;;;13.90;99.90;;;;;;5005617;28;19922;-74
2023/08/27 05:56:18;;;;;;;2.70;2.50;;;14.00;99.90;;;;;;4956263;28;20043;-74
2023/08/27 05:58:44;;;;;;;2.67;2.30;;;14.00;99.90;;;;;;4972905;28;20043;-74
2023/08/27 06:01:10;;;;;;;2.60;2.22;;;14.10;99.90;;;;;;4972525;28;20039;-74
2023/08/27 06:03:36;;;;;;;2.40;2.20;;;14.10;99.90;;;;;;4972134;28;20129;-74
2023/08/27 06:06:01;;;;;;;2.72;2.30;;;14.10;99.90;;;;;;4953761;28;20736;-74
2023/08/27 06:08:27;;;;;;;2.85;2.13;;;14.10;99.90;;;;;;4972626;28;20053;-74
2023/08/27 06:10:53;;;;;;;2.45;2.25;;;14.10;99.90;;;;;;4971013;28;20054;-74
2023/08/27 06:13:19;;;;;;;2.05;1.85;;;14.10;99.90;;;;;;4978663;28;20073;-74
2023/08/27 06:15:44;;;;;;;2.80;2.53;;;14.00;99.90;;;;;;4955812;28;20038;-74
2023/08/27 06:18:10;;;;;;;2.40;2.20;;;14.10;99.90;;;;;;4981076;28;20062;-74
2023/08/27 06:20:36;;;;;;;2.53;2.25;;;14.10;99.90;;;;;;4972360;28;20134;-74
2023/08/27 06:23:04;;;;;;;2.40;2.20;;;14.20;99.90;;;;;;4963802;28;20112;-74
2023/08/27 06:25:36;;;;;;;2.60;2.40;;;14.20;99.90;;;;;;4969883;28;20118;-74
2023/08/27 06:28:04;;;;;;;2.33;2.10;;;14.20;99.90;;;;;;4972624;28;20060;-74
2023/08/27 06:30:33;;;;;;;2.50;2.17;;;14.20;99.90;;;;;;4971734;28;20121;-74
2023/08/27 06:32:58;;;;;;;2.20;2.00;;;14.20;99.90;;;;;;4970663;28;20443;-74
2023/08/27 06:35:24;;;;;;;3.15;2.00;;;14.30;99.90;;;;;;4987597;28;20093;-74
2023/08/27 06:37:50;;;;;;;2.08;1.88;;;14.30;99.90;;;;;;4970481;28;20042;-74
2023/08/27 06:40:16;;;;;;;2.33;2.05;;;14.30;99.90;;;;;;4972212;28;20054;-74
2023/08/27 06:42:43;;;;;;;2.58;2.30;;;14.30;99.90;;;;;;4955141;28;20519;-74
2023/08/27 06:45:09;;;;;;;2.42;2.22;;;14.30;99.90;;;;;;4972053;28;20419;-74
2023/08/27 06:47:35;;;;;;;3.35;2.40;;;14.30;99.90;;;;;;4956267;28;20086;-74
2023/08/27 06:50:04;;;;;;;2.38;2.17;;;14.30;99.90;;;;;;4970939;28;20139;-74
2023/08/27 06:52:31;;;;;;;2.50;2.30;;;14.30;99.90;;;;;;4967003;28;20058;-72
2023/08/27 06:54:58;;;;;;;2.83;2.40;;;14.30;99.90;;;;;;4955497;28;20047;-73
2023/08/27 06:57:24;;;;;;;2.60;2.25;;;14.30;99.90;;;;;;4969756;28;20510;-73
2023/08/27 06:59:49;;;;;;;2.30;1.90;;;14.30;99.90;;;;;;4971351;28;20043;-73
2023/08/27 07:02:15;;;;;;;2.40;2.20;;;14.40;99.90;;;;;;4965012;28;20046;-73
2023/08/27 07:04:41;;;;;;;;;;;14.30;99.90;;;;;;4972059;28;20047;-74
2023/08/27 07:07:07;;;;;;;2.40;2.20;;;14.40;99.90;;;;;;4973054;28;19933;-73
2023/08/27 07:09:33;;;;;;;2.45;2.25;;;14.40;99.90;;;;;;4973045;28;20043;-73
2023/08/27 07:11:58;;;;;;;2.40;2.20;;;14.50;99.90;;;;;;4963766;28;20059;-73
2023/08/27 07:14:24;;;;;;;2.00;1.80;;;14.50;99.90;;;;;;4971174;28;20097;-73
2023/08/27 07:16:50;;;;;;;2.72;2.35;;;14.50;99.90;;;;;;5003706;28;20449;-73
2023/08/27 07:19:15;;;;;;;2.47;2.00;;;14.50;99.90;;;;;;4954472;28;20046;-73
2023/08/27 07:21:41;;;;;;;2.38;1.90;;;14.50;99.90;;;;;;4964374;28;20097;-73
2023/08/27 07:24:07;;;;;;;2.33;1.65;;;14.50;99.90;;;;;;4955636;28;20039;-73
2023/08/27 07:26:33;;;;;;;1.80;1.50;;;14.50;99.90;;;;;;4963768;28;20082;-73
2023/08/27 07:28:58;;;;;;;1.95;1.55;;;14.50;99.90;;;;;;4954945;28;20050;-73
2023/08/27 07:31:24;;;;;;;1.67;1.20;;;14.60;99.90;;;;;;4968447;28;20042;-73
2023/08/27 07:33:50;;;;;;;1.77;1.40;;;14.60;99.90;;;;;;4969622;28;20057;-73
2023/08/27 07:36:16;;;;;;;1.55;1.35;;;14.70;99.90;;;;;;4970764;28;20047;-73
2023/08/27 07:38:42;;;;;;;1.60;1.40;;;14.80;99.90;;;;;;4969577;28;20039;-73
2023/08/27 07:41:11;;;;;;;1.60;1.20;;;14.80;99.90;;;;;;4968395;28;20062;-73
2023/08/27 07:43:38;;;;;;;1.20;1.00;;;14.90;99.90;;;;;;4936290;29;20056;-73
2023/08/27 07:46:04;;;;;;;1.70;1.10;;;14.90;99.90;;;;;;4965132;28;20041;-73
2023/08/27 07:48:31;;;;;;;1.55;1.10;;;14.90;99.90;;;;;;4970799;28;20082;-73
2023/08/27 07:50:57;;;;;;;1.40;1.10;;;14.90;99.90;;;;;;4970284;28;20063;-74
2023/08/27 07:53:23;;;;;;;;;;;14.90;99.90;;;;;;4969045;28;20141;-73
2023/08/27 07:55:50;;;;;;;1.88;1.30;;;14.90;99.90;;;;;;4965576;28;20358;-74
2023/08/27 07:58:15;;;;;;;1.30;1.17;;;14.80;99.90;;;;;;4974269;28;20461;-73
2023/08/27 08:00:41;;;;;;;1.45;1.30;;;14.90;99.90;;;;;;4970558;28;20174;-74
2023/08/27 08:03:07;;;;;;;1.50;1.20;;;14.80;99.90;;;;;;4971000;28;20051;-74
2023/08/27 08:05:33;;;;;;;2.13;1.30;;;14.80;99.90;;;;;;4970065;28;20109;-74
2023/08/27 08:08:00;;;;;;;1.80;1.50;;;14.90;99.90;;;;;;4967750;28;20137;-73
2023/08/27 08:10:25;;;;;;;2.42;1.60;;;15.10;99.90;;;;;;4966671;28;20050;-74
2023/08/27 08:12:52;;;;;;;1.77;1.40;;;15.30;99.90;;;;;;4970165;28;20052;-74
2023/08/27 08:15:18;;;;;;;1.60;1.50;;;15.50;99.90;;;;;;4936176;28;20038;-74
2023/08/27 08:17:44;;;;;;;2.08;1.40;;;15.80;99.90;;;;;;5002749;28;20632;-73
2023/08/27 08:20:11;;;;;;;2.05;1.70;;;16.00;99.90;;;;;;4969334;28;20043;-74
2023/08/27 08:22:37;;;;;;;1.98;1.45;;;16.00;99.90;;;;;;4964031;28;20109;-74
2023/08/27 08:25:03;;;;;;;;;;;16.10;99.90;;;;;;4988153;28;20585;-74
2023/08/27 08:27:29;;;;;;;1.88;1.48;;;16.20;99.90;;;;;;5008271;28;19918;-75
2023/08/27 08:29:54;;;;;;;;;;;16.40;99.90;;;;;;4968017;28;20100;-74
2023/08/27 08:32:20;;;;;;;2.10;1.60;;;16.50;99.90;;;;;;4969200;28;20460;-74
2023/08/27 08:34:46;;;;;;;1.63;1.40;;;16.70;99.90;;;;;;4977453;28;20053;-74
2023/08/27 08:37:11;;;;;;;;;;;17.00;99.90;;;;;;4977248;28;20483;-73
2023/08/27 08:39:37;;;;;;;2.00;1.60;;;17.30;99.90;;;;;;4976166;28;19933;-74
2023/08/27 08:42:14;;;;;;;2.63;1.80;;;17.50;99.90;;;;;;4966884;28;20043;-73
2023/08/27 08:44:54;;;;;;;2.35;1.70;;;17.60;99.90;;;;;;4990381;28;20042;-73
2023/08/27 08:47:21;;;;;;;1.65;1.55;;;17.80;99.90;;;;;;4976088;28;20086;-73
2023/08/27 08:49:52;;;;;;;2.25;1.40;;;17.90;99.90;;;;;;4973860;28;20566;-73
2023/08/27 08:52:21;;;;;;;2.17;1.38;;;18.00;99.90;;;;;;4960045;28;20137;-73
2023/08/27 08:54:51;;;;;;;2.00;1.30;;;18.00;99.90;;;;;;4958924;28;20527;-72
2023/08/27 08:57:18;;;;;;;1.58;1.27;;;17.80;87.90;;;;;;4973973;28;20074;-73
2023/08/27 08:59:45;;;;;;;1.25;1.15;;;17.70;99.90;;;;;;4976339;28;20054;-73
2023/08/27 09:02:12;;;;;;;1.40;1.20;;;17.70;99.90;;;;;;4981436;28;20086;-74
2023/08/27 09:04:40;;;;;;;2.03;1.33;;;17.70;99.90;;;;;;4990457;28;20093;-73
2023/08/27 09:07:06;;;;;;;1.30;1.10;;;17.80;99.90;;;;;;4972123;28;20426;-73
2023/08/27 09:09:32;;;;;;;1.67;1.30;;;18.20;54.40;;;;;;4970202;28;20050;-73
2023/08/27 09:11:59;;;;;;;;;;;18.10;1.00;;;;;;4968711;28;20057;-73
2023/08/27 09:14:24;;;;;;;;;;;18.10;99.90;;;;;;4978024;28;19922;-73
2023/08/27 09:16:51;;;;;;;1.95;1.33;;;18.10;1.00;;;;;;4974951;28;19919;-73
2023/08/27 09:19:17;;;;;;;2.13;1.20;;;17.90;99.90;;;;;;4976563;28;20414;-73
2023/08/27 09:21:43;;;;;;;;;;;17.70;99.90;;;;;;4968487;28;20042;-73
2023/08/27 09:24:09;;;;;;;1.55;1.25;;;18.00;99.90;;;;;;4975988;28;19928;-73
2023/08/27 09:26:34;;;;;;;;;;;18.30;99.90;;;;;;4957481;28;20046;-74
2023/08/27 09:29:01;;;;;;;0.82;0.80;;;18.70;99.90;;;;;;4975049;28;19918;-74
2023/08/27 09:31:40;;;;;;;1.60;1.23;;;19.00;99.90;;;;;;4970306;28;20464;-74
2023/08/27 09:34:07;;;;;;;1.83;1.13;;;19.20;56.70;;;;;;4974122;28;20541;-74
2023/08/27 09:36:35;;;;;;;1.65;1.10;;;19.40;99.90;;;;;;4998355;28;20074;-74
2023/08/27 09:39:10;;;;;;;1.13;1.02;;;19.60;1.00;;;;;;4972603;28;20047;-74
2023/08/27 09:41:41;;;;;;;1.27;1.15;;;19.60;99.90;;;;;;4942512;28;20065;-75
2023/08/27 09:44:07;;;;;;;1.88;1.35;;;19.40;99.90;;;;;;4973960;28;20041;-74
2023/08/27 09:46:34;;;;;;;1.85;1.27;;;19.10;99.90;;;;;;4987379;28;20030;-74
2023/08/27 09:49:01;;;;;;;1.63;1.20;;;18.80;99.90;;;;;;4978247;28;20053;-74
2023/08/27 09:51:31;;;;;;;1.23;0.93;;;19.20;50.60;;;;;;4954899;28;20059;-74
2023/08/27 09:53:56;;;;;;;2.53;1.20;;;19.40;99.90;;;;;;4969810;28;20046;-74
2023/08/27 09:56:24;;;;;;;;;;;19.60;99.90;;;;;;4968885;28;20070;-74
2023/08/27 09:58:50;;;;;;;2.10;1.27;;;19.90;99.90;;;;;;4979548;28;20306;-74
2023/08/27 10:01:17;;;;;;;1.88;1.42;;;19.80;99.90;;;;;;4972706;28;20458;-74
2023/08/27 10:03:45;;;;;;;1.75;1.20;;;19.60;99.90;;;;;;4959430;28;20374;-74
2023/08/27 10:06:12;;;;;;;1.23;1.00;;;19.50;99.90;;;;;;4955759;28;20038;-74
2023/08/27 10:08:50;;;;;;;1.35;1.02;;;19.40;99.90;;;;;;4972668;28;20047;-74
2023/08/27 10:11:17;;;;;;;1.30;0.98;;;19.20;99.90;;;;;;4953083;29;20051;-74
2023/08/27 10:13:44;;;;;;;0.80;0.80;;;18.90;99.90;;;;;;4984951;28;20114;-74
2023/08/27 10:16:14;;;;;;;1.88;1.25;;;19.00;99.90;;;;;;4955567;28;20050;-74
2023/08/27 10:18:40;;;;;;;1.42;0.90;;;19.30;99.90;;;;;;4970243;28;20051;-74
2023/08/27 10:21:08;;;;;;;0.80;0.75;;;19.50;99.90;;;;;;4972268;28;20053;-74
2023/08/27 10:23:37;;;;;;;1.23;0.80;;;19.70;99.90;;;;;;4968733;28;20047;-74
2023/08/27 10:26:04;;;;;;;1.10;0.70;;;19.60;71.20;;;;;;4970994;28;20077;-74
2023/08/27 10:28:31;;;;;;;1.23;0.77;;;19.60;92.30;;;;;;4970461;28;20483;-74
2023/08/27 10:30:57;;;;;;;1.05;0.80;;;20.00;99.90;;;;;;4969057;28;20125;-74
2023/08/27 10:33:23;;;;;;;0.98;0.80;;;20.30;99.90;;;;;;4971089;28;20042;-74
2023/08/27 10:35:51;;;;;;;1.48;0.80;;;20.60;27.20;;;;;;4963455;28;20053;-74
2023/08/27 10:38:18;;;;;;;1.10;0.73;;;20.80;1.00;;;;;;4969569;28;20661;-74
2023/08/27 10:40:45;;;;;;;0.70;0.70;;;21.10;1.00;;;;;;4988244;28;20558;-74
2023/08/27 10:43:21;;;;;;;1.10;0.80;;;21.50;99.90;;;;;;4974546;28;20180;-74
2023/08/27 10:45:48;;;;;;;;;;;21.70;99.90;;;;;;4968204;28;20284;-74
2023/08/27 10:48:20;;;;;;;1.58;0.93;;;21.70;99.90;;;;;;4961746;28;19922;-74
2023/08/27 10:50:50;;;;;;;0.90;0.70;;;21.90;99.90;;;;;;4979987;28;20145;-73
2023/08/27 10:53:17;;;;;;;1.05;0.80;;;21.70;99.90;;;;;;4971347;28;20057;-73
2023/08/27 10:55:48;;;;;;;1.23;0.73;;;21.00;99.90;;;;;;4983532;28;20490;-73
2023/08/27 10:58:25;;;;;;;1.73;0.80;;;20.60;99.90;;;;;;4983755;28;20118;-73
2023/08/27 11:01:03;;;;;;;0.80;0.70;;;20.20;99.90;;;;;;4959073;28;20117;-73
2023/08/27 11:04:02;;;;;;;0.90;0.70;;;19.90;1.00;;;;;;4982579;28;20053;-73
2023/08/27 11:06:48;;;;;;;1.10;0.80;;;19.60;1.00;;;;;;4981917;28;20054;-74
2023/08/27 11:09:21;;;;;;;1.15;0.70;;;19.40;99.90;;;;;;4966594;28;20051;-74
2023/08/27 11:11:54;;;;;;;1.13;0.60;;;19.20;99.90;;;;;;4963975;28;20071;-74
2023/08/27 11:14:22;;;;;;;1.33;0.90;;;19.10;1.00;;;;;;4972823;28;20038;-74
2023/08/27 11:16:55;;;;;;;0.70;0.70;;;18.90;62.20;;;;;;4966756;28;20035;-75
2023/08/27 11:19:35;;;;;;;1.05;0.90;;;18.70;1.00;;;;;;4960412;28;20089;-75
2023/08/27 11:22:14;;;;;;;1.67;0.80;;;18.40;99.90;;;;;;4971262;28;20046;-77
2023/08/27 11:24:45;;;;;;;0.77;0.70;;;18.10;98.80;;;;;;4963843;28;20046;-74
2023/08/27 11:27:12;;;;;;;0.77;0.77;;;18.00;99.90;;;;;;4968701;28;20639;-74
2023/08/27 11:29:42;;;;;;;1.77;0.80;;;18.30;99.90;;;;;;4966947;28;20050;-75
2023/08/27 11:32:09;;;;;;;0.85;0.55;;;18.60;99.90;;;;;;4965656;28;20117;-75
2023/08/27 11:34:40;;;;;;;0.98;0.88;;;19.00;99.90;;;;;;4963630;28;20113;-75
2023/08/27 11:37:07;;;;;;;1.08;0.88;;;19.20;99.90;;;;;;4972263;28;20039;-76
2023/08/27 11:39:35;;;;;;;1.67;0.93;;;19.50;99.90;;;;;;4970034;28;20090;-75
2023/08/27 11:42:00;;;;;;;0.70;0.70;;;19.60;1.00;;;;;;4967880;28;20081;-75
2023/08/27 11:44:26;;;;;;;;;;;20.10;99.90;;;;;;4970833;28;20070;-74
2023/08/27 11:46:52;;;;;;;1.42;1.20;;;20.00;99.90;;;;;;4965241;28;20009;-74
2023/08/27 11:49:39;;;;;;;1.20;1.10;;;19.90;2.00;;;;;;4970845;28;20509;-75
2023/08/27 11:52:06;;;;;;;2.05;1.25;;;19.50;64.40;;;;;;4986434;28;20090;-75
2023/08/27 11:54:34;;;;;;;1.50;1.10;;;19.10;99.90;;;;;;4959192;28;20047;-74
2023/08/27 11:57:02;;;;;;;1.90;1.00;;;19.00;99.90;;;;;;4969334;28;20117;-74
2023/08/27 11:59:28;;;;;;;2.00;0.80;;;18.40;99.90;;;;;;4969424;28;20074;-74
2023/08/27 12:01:54;;;;;;;;;;;18.00;1.00;;;;;;4982149;28;20097;-74
2023/08/27 12:04:20;;;;;;;1.90;0.82;;;17.90;1.00;;;;;;5002058;28;19965;-74
2023/08/27 12:06:51;;;;;;;1.17;0.63;;;17.50;1.00;;;;;;4982607;28;20054;-73
2023/08/27 12:09:25;;;;;;;1.52;0.80;;;17.10;1.00;;;;;;4952112;28;20046;-75
2023/08/27 12:11:51;;;;;;;1.35;0.65;;;16.70;99.90;;;;;;4983211;28;20343;-75
2023/08/27 12:14:21;;;;;;;;;;;16.80;15.50;;;;;;4964970;28;20054;-75
2023/08/27 12:16:46;;;;;;;1.15;0.60;;;16.60;96.90;;;;;;4953380;28;19980;-74
2023/08/27 12:19:13;;;;;;;;;;;16.40;99.90;;;;;;4954170;28;20066;-74
2023/08/27 12:21:53;;;;;;;2.60;0.60;;;16.30;99.90;;;;;;4969984;28;20329;-74
2023/08/27 12:24:44;;;;;;;0.88;0.57;;;16.10;99.90;;;;;;4967443;28;20054;-74
2023/08/27 12:27:14;;;;;;;1.58;0.50;;;15.80;99.90;;;;;;4962969;28;20058;-74
2023/08/27 12:29:42;;;;;;;0.55;0.40;;;15.70;6.20;;;;;;4970067;28;20035;-75
2023/08/27 12:32:09;;;;;;;0.68;0.40;;;15.50;99.90;;;;;;4961113;28;20102;-75
2023/08/27 12:34:36;;;;;;;1.50;0.68;;;15.50;22.50;;;;;;4963574;28;20050;-75
2023/08/27 12:37:03;;;;;;;1.10;0.57;;;15.20;99.90;;;;;;4968990;28;20089;-75
2023/08/27 12:39:30;;;;;;;1.52;0.52;;;15.10;1.00;;;;;;4969724;28;20046;-74
2023/08/27 12:41:55;;;;;;;0.80;0.47;;;15.20;38.30;;;;;;4969619;28;20059;-74
2023/08/27 12:44:21;;;;;;;0.55;0.30;;;15.20;72.50;;;;;;4954171;28;20043;-74
2023/08/27 12:46:47;;;;;;;1.13;0.40;;;15.30;99.90;;;;;;4952934;28;20483;-75
2023/08/27 12:49:12;;;;;;;0.50;0.30;;;15.50;99.90;;;;;;4952140;28;20190;-75
2023/08/27 12:51:38;;;;;;;1.02;0.50;;;15.70;99.90;;;;;;4966803;28;20075;-74
2023/08/27 12:54:04;;;;;;;;;;;15.90;99.90;;;;;;4968926;28;20051;-74